MAPA DE AEROPUERTO

INFORMACIÓN METAR y TAF

METAR FOR GCLP
ADDS - METARS form results

(2335 UTC 31 March 2020)
Data provider http://aviationweather.gov/metar/data/
 
METAR text: GCLP 312330Z 01005KT 9999 BKN020 19/15 Q1017 NOSIG
Conditions at: GCLP (LAS PALMAS/GANDO, ES) observed 2330 UTC 31 March 2020
Temperature: 19.0°C (66°F)
Dewpoint: 15.0°C (59°F) [RH = 78%]
Pressure (altimeter): 30.03 inches Hg (1017.0 mb)
Winds: from the N (10 degrees) at 6 MPH (5 knots; 2.6 m/s)
Visibility: 6 or more miles (10+ km)
Ceiling: 2000 feet AGL
Clouds: broken clouds at 2000 feet AGL
Weather: no significant weather observed at this time

METAR text: GCLP 312300Z 34002KT 9999 FEW020 BKN040 19/15 Q1017 NOSIG
Conditions at: GCLP (LAS PALMAS/GANDO, ES) observed 2300 UTC 31 March 2020
Temperature: 19.0°C (66°F)
Dewpoint: 15.0°C (59°F) [RH = 78%]
Pressure (altimeter): 30.03 inches Hg (1017.0 mb)
Winds: from the NNW (340 degrees) at 2 MPH (2 knots; 1.0 m/s)
Visibility: 6 or more miles (10+ km)
Ceiling: 4000 feet AGL
Clouds: few clouds at 2000 feet AGL
broken clouds at 4000 feet AGL
Weather: no significant weather observed at this time

Forecast for: GCLP (LAS PALMAS/GANDO, ES)
Text: TAF GCLP 312000Z 3121/0121 33006KT 9999 BKN030 TX22/0113Z TN16/0106Z
Forecast period: 2100 UTC 31 March 2020 to 0900 UTC 01 April 2020
Forecast type: FROM: standard forecast or significant change
Winds: from the NNW (330 degrees) at 7 MPH (6 knots; 3.1 m/s)
Visibility: 6 or more miles 10+ km)
Ceiling: 3000 feet AGL
Clouds: broken clouds at 3000 feet AGL
Weather: no significant weather forecast for this period
Text: BECMG 0109/0111 04010KT
Forecast period: 0900 to 2100 UTC 01 April 2020
Forecast type: BECOMING: Conditions expected to become as follows by 1100 UTC 01 April 2020
Winds: from the NE (40 degrees) at 12 MPH (10 knots; 5.1 m/s)
Visibility: 6 or more miles 10+ km)
Ceiling: 3000 feet AGL
Clouds: broken clouds at 3000 feet AGL
Weather: no significant weather forecast for this period